KTBR/TBR METAR and TAF weather

Enter ICAO airport designator
Station Type Date Time Source
KTBR METAR 2020/12/06 01:35 UTC NOAA

KTBR 060135Z AUTO 00000KT 10SM CLR 05/04 A3006 RMK AO2 T00490038


Station Type Date Time Source
KTBR Decoded METAR 2020/12/06 01:35 UTC NOAA

Statesboro, Statesboro-Bulloch County Airport, GA, United States (KTBR) 32-28-59N 081-44-14W
Dec 05, 2020 - 08:35 PM EST / 2020.12.06 0135 UTC
Wind: Calm:0
Visibility: 10 mile(s):0
Sky conditions: clear
Temperature: 40.8 F (4.9 C)
Dew Point: 38.8 F (3.8 C)
Relative Humidity: 92%
Pressure (altimeter): 30.06 in. Hg (1017 hPa)
ob: KTBR 060135Z AUTO 00000KT 10SM CLR 05/04 A3006 RMK AO2 T00490038
cycle: 1

Station Type Date Time Source
KTBR TAF UTC NOAA

Error!

Example: see airport list